Time;durP1;ratioP1;P1;durP2;ratioP2;P2;SDS_P1;SDS_P2;PMS_P1;PMS_P2;Temp;Humidity;BMP_temperature;BMP_pressure;BME280_temperature;BME280_humidity;BME280_pressure;Samples;Min_cycle;Max_cycle;Signal;HPM_P1;HPM_P2
2021/12/04 00:01:54;;;;;;;;;;;;;;;0.65;75.07;95360.78;5002164;28;19945;-80
2021/12/04 00:04:28;;;;;;;;;;;;;;;0.65;75.25;95360.78;4983418;28;19962;-80
2021/12/04 00:06:54;;;;;;;;;;;;;;;0.68;75.51;95352.69;4988113;28;19986;-80
2021/12/04 00:09:22;;;;;;;;;;;;;;;0.69;74.97;95364.59;4973019;28;20325;-80
2021/12/04 00:11:55;;;;;;;;;;;;;;;0.69;74.96;95354.28;4992327;28;20309;-80
2021/12/04 00:14:21;;;;;;;;;;;;;;;0.71;75.49;95357.47;4973980;28;19965;-80
2021/12/04 00:16:47;;;;;;;;;;;;;;;0.75;74.89;95356.13;4987109;28;19962;-80
2021/12/04 00:19:13;;;;;;;;;;;;;;;0.76;74.83;95357.75;4986278;28;19955;-80
2021/12/04 00:21:39;;;;;;;;;;;;;;;0.80;75.13;95348.66;4966499;28;19961;-80
2021/12/04 00:24:05;;;;;;;;;;;;;;;0.84;74.91;95349.06;4983980;28;20005;-80
2021/12/04 00:26:31;;;;;;;;;;;;;;;0.85;74.48;95342.94;4989711;28;20442;-80
2021/12/04 00:28:57;;;;;;;;;;;;;;;0.85;74.38;95330.03;4986339;28;20049;-80
2021/12/04 00:31:23;;;;;;;;;;;;;;;0.85;74.77;95327.44;4986112;28;19974;-80
2021/12/04 00:33:49;;;;;;;;;;;;;;;0.86;74.89;95321.28;4985662;28;19958;-80
2021/12/04 00:37:06;;;;;;;;;;;;;;;0.88;74.68;95320.09;4985717;28;19961;-80
2021/12/04 00:50:04;;;;;;;;;;;;;;;1.00;75.73;95313.47;4982931;28;19951;-80
2021/12/04 00:52:30;;;;;;;;;;;;;;;1.00;75.38;95299.78;4986846;28;19963;-80
2021/12/04 00:54:55;;;;;;;;;;;;;;;0.96;75.83;95295.97;4992182;28;19957;-80
2021/12/04 00:57:22;;;;;;;;;;;;;;;0.95;76.15;95294.38;4983933;28;19998;-80
2021/12/04 00:59:47;;;;;;;;;;;;;;;0.96;76.95;95288.22;4985763;28;19967;-80
2021/12/04 01:02:15;;;;;;;;;;;;;;;0.93;78.03;95286.81;4982529;28;19962;-80
2021/12/04 01:04:41;;;;;;;;;;;;;;;0.87;79.34;95284.19;4993229;28;19956;-80
2021/12/04 01:07:08;;;;;;;;;;;;;;;0.78;79.43;95280.94;5010811;28;19992;-80
2021/12/04 01:09:35;;;;;;;;;;;;;;;0.68;80.95;95278.66;5031871;28;19968;-80
2021/12/04 01:12:01;;;;;;;;;;;;;;;0.62;81.17;95276.81;5024304;28;20306;-80
2021/12/04 01:14:27;;;;;;;;;;;;;;;0.57;82.85;95263.69;5007332;28;19953;-80
2021/12/04 01:16:54;;;;;;;;;;;;;;;0.52;82.83;95261.63;4994410;28;19955;-80
2021/12/04 01:19:20;;;;;;;;;;;;;;;0.53;82.68;95257.28;5013363;28;19959;-81
2021/12/04 01:21:47;;;;;;;;;;;;;;;0.53;84.90;95262.44;5021565;28;19954;-80
2021/12/04 01:24:13;;;;;;;;;;;;;;;0.54;84.25;95253.72;5033182;28;19962;-81
2021/12/04 01:26:39;;;;;;;;;;;;;;;0.56;84.33;95252.53;5010198;28;19966;-80
2021/12/04 01:29:05;;;;;;;;;;;;;;;0.61;84.58;95244.28;5023427;28;19989;-81
2021/12/04 01:31:31;;;;;;;;;;;;;;;0.59;83.96;95241.88;5027132;28;20330;-81
2021/12/04 01:33:57;;;;;;;;;;;;;;;0.60;84.54;95248.63;5029337;28;20442;-81
2021/12/04 01:36:24;;;;;;;;;;;;;;;0.62;85.16;95242.50;5021178;28;19949;-81
2021/12/04 01:38:50;;;;;;;;;;;;;;;0.53;87.00;95232.28;5028051;28;19959;-81
2021/12/04 01:41:16;;;;;;;;;;;;;;;0.49;86.72;95223.31;5013294;28;19951;-81
2021/12/04 01:43:42;;;;;;;;;;;;;;;0.49;86.55;95220.75;5017166;28;20431;-81
2021/12/04 01:46:09;;;;;;;;;;;;;;;0.53;86.53;95219.41;5004503;28;19968;-81
2021/12/04 01:48:35;;;;;;;;;;;;;;;0.52;86.44;95210.03;4991040;28;19973;-81
2021/12/04 01:51:01;;;;;;;;;;;;;;;0.55;85.97;95203.75;5004677;28;19975;-81
2021/12/04 01:53:27;;;;;;;;;;;;;;;0.50;87.76;95204.28;5030116;28;19948;-81
2021/12/04 01:55:54;;;;;;;;;;;;;;;0.45;88.74;95192.94;5008574;28;19963;-81
2021/12/04 01:58:20;;;;;;;;;;;;;;;0.41;87.83;95187.34;5017409;28;19956;-81
2021/12/04 02:00:47;;;;;;;;;;;;;;;0.39;87.93;95177.22;5017111;28;20428;-81
2021/12/04 02:03:13;;;;;;;;;;;;;;;0.39;89.33;95173.84;5023695;28;19953;-82
2021/12/04 02:05:40;;;;;;;;;;;;;;;0.38;87.89;95167.88;5008603;28;20353;-81
2021/12/04 02:08:07;;;;;;;;;;;;;;;0.41;89.21;95161.56;5008277;28;19986;-81
2021/12/04 02:10:34;;;;;;;;;;;;;;;0.40;89.60;95154.81;5025157;28;19982;-81
2021/12/04 02:13:00;;;;;;;;;;;;;;;0.37;90.11;95143.06;5019482;28;19962;-81
2021/12/04 02:15:26;;;;;;;;;;;;;;;0.35;89.31;95144.25;5017002;28;19946;-81
2021/12/04 02:17:52;;;;;;;;;;;;;;;0.33;90.01;95141.84;5026386;28;20336;-81
2021/12/04 02:20:20;;;;;;;;;;;;;;;0.33;90.01;95134.09;5000761;28;19962;-81
2021/12/04 02:22:47;;;;;;;;;;;;;;;0.32;90.30;95139.47;5034462;28;19959;-81
2021/12/04 02:25:14;;;;;;;;;;;;;;;0.31;90.16;95141.22;5027683;28;20313;-81
2021/12/04 02:27:40;;;;;;;;;;;;;;;0.30;90.39;95128.56;5006310;28;20043;-82
2021/12/04 02:30:08;;;;;;;;;;;;;;;0.31;91.71;95132.72;5013835;28;19955;-81
2021/12/04 02:32:34;;;;;;;;;;;;;;;0.32;90.49;95139.47;5011142;28;19955;-81
2021/12/04 02:35:00;;;;;;;;;;;;;;;0.39;90.82;95142.88;5023813;28;20320;-82
2021/12/04 02:37:26;;;;;;;;;;;;;;;0.41;91.46;95140.94;5011538;28;20023;-81
2021/12/04 02:39:59;;;;;;;;;;;;;;;0.42;89.88;95131.41;5005163;28;19965;-82
2021/12/04 02:42:27;;;;;;;;;;;;;;;0.42;91.05;95115.94;5029425;28;19959;-81
2021/12/04 02:44:54;;;;;;;;;;;;;;;0.39;91.30;95110.16;5016554;28;19953;-82
2021/12/04 02:47:20;;;;;;;;;;;;;;;0.39;91.01;95105.00;5016329;28;20298;-82
2021/12/04 02:49:46;;;;;;;;;;;;;;;0.42;90.85;95097.88;5027385;28;20336;-82
2021/12/04 02:52:13;;;;;;;;;;;;;;;0.40;91.84;95101.44;4991073;28;20394;-82
2021/12/04 02:54:39;;;;;;;;;;;;;;;0.40;92.19;95095.50;5024640;28;20053;-82
2021/12/04 02:57:08;;;;;;;;;;;;;;;0.39;94.56;95092.09;5029220;28;19959;-82
2021/12/04 02:59:35;;;;;;;;;;;;;;;0.39;92.70;95088.75;5015932;28;20320;-82
2021/12/04 03:02:01;;;;;;;;;;;;;;;0.40;93.27;95080.81;5033960;28;19959;-82
2021/12/04 03:04:28;;;;;;;;;;;;;;;0.41;94.20;95081.63;5021625;28;19950;-82
2021/12/04 03:06:54;;;;;;;;;;;;;;;0.40;93.95;95074.88;5003282;28;19983;-82
2021/12/04 03:09:20;;;;;;;;;;;;;;;0.42;92.66;95075.50;5024642;28;19982;-82
2021/12/04 03:11:46;;;;;;;;;;;;;;;0.45;93.54;95066.56;5010518;28;19966;-83
2021/12/04 03:14:12;;;;;;;;;;;;;;;0.45;93.31;95066.56;5015906;28;20418;-83
2021/12/04 03:16:40;;;;;;;;;;;;;;;0.46;94.13;95066.34;5028119;28;19958;-83
2021/12/04 03:19:06;;;;;;;;;;;;;;;0.47;92.73;95060.22;5022816;28;19953;-83
2021/12/04 03:21:33;;;;;;;;;;;;;;;0.47;94.51;95054.28;5002245;28;19958;-83
2021/12/04 03:24:08;;;;;;;;;;;;;;;0.48;95.20;95058.44;5026385;28;19954;-83
2021/12/04 03:26:36;;;;;;;;;;;;;;;0.47;94.24;95047.34;5030039;28;19971;-84
2021/12/04 03:29:06;;;;;;;;;;;;;;;0.46;94.20;95043.16;5007921;28;19973;-84
2021/12/04 03:40:06;;;;;;;;;;;;;;;0.48;96.44;95022.34;5003715;28;19956;-84
2021/12/04 03:42:33;;;;;;;;;;;;;;;0.50;95.60;95008.25;5001777;28;20404;-84
2021/12/04 03:44:59;;;;;;;;;;;;;;;0.53;95.12;95002.72;5018150;28;19951;-85
2021/12/04 03:47:25;;;;;;;;;;;;;;;0.58;94.99;94997.78;5033106;28;20054;-84
2021/12/04 03:49:51;;;;;;;;;;;;;;;0.60;96.83;94998.41;5020675;28;19947;-84
2021/12/04 03:52:17;;;;;;;;;;;;;;;0.60;96.59;94989.88;5023878;28;19953;-84
2021/12/04 03:54:43;;;;;;;;;;;;;;;0.60;96.15;94985.50;5006562;28;19957;-83
2021/12/04 03:57:12;;;;;;;;;;;;;;;0.63;97.01;94980.94;5021130;28;19952;-83
2021/12/04 03:59:44;;;;;;;;;;;;;;;0.64;96.13;94977.41;5022932;28;19958;-84
2021/12/04 04:02:11;;;;;;;;;;;;;;;0.68;95.65;94968.28;5012972;28;19947;-85
2021/12/04 04:04:37;;;;;;;;;;;;;;;0.70;94.54;94954.19;5025327;28;19955;-83
2021/12/04 04:07:03;;;;;;;;;;;;;;;0.73;97.59;94958.16;4973438;28;20074;-82
2021/12/04 04:09:29;;;;;;;;;;;;;;;0.73;97.07;94943.47;5028548;28;19982;-80
2021/12/04 04:11:56;;;;;;;;;;;;;;;0.76;95.89;94943.09;5013506;28;20318;-81
2021/12/04 04:14:23;;;;;;;;;;;;;;;0.80;97.41;94948.69;5027296;28;19979;-80
2021/12/04 04:16:49;;;;;;;;;;;;;;;0.82;95.44;94951.88;5027812;28;19956;-80
2021/12/04 04:19:15;;;;;;;;;;;;;;;0.88;94.64;94948.47;5026622;28;20024;-80
2021/12/04 04:21:41;;;;;;;;;;;;;;;0.92;94.84;94944.53;5025021;28;20430;-80
2021/12/04 04:24:11;;;;;;;;;;;;;;;0.96;93.85;94939.78;5026959;28;20332;-81
2021/12/04 04:26:38;;;;;;;;;;;;;;;0.99;95.40;94935.03;5009775;28;19960;-81
2021/12/04 04:29:05;;;;;;;;;;;;;;;1.01;95.53;94940.78;5026578;28;20441;-81
2021/12/04 04:31:32;;;;;;;;;;;;;;;1.02;94.48;94929.47;5029067;28;19979;-81
2021/12/04 04:34:04;;;;;;;;;;;;;;;1.02;95.57;94928.69;5029348;28;20418;-81
2021/12/04 04:58:22;;;;;;;;;;;;;;;1.09;97.86;94908.03;5010934;28;20433;-80
2021/12/04 05:11:22;;;;;;;;;;;;;;;1.11;98.47;94883.59;5010258;28;19957;-81
2021/12/04 05:13:50;;;;;;;;;;;;;;;1.13;97.34;94883.41;5028250;28;19954;-81
2021/12/04 05:16:17;;;;;;;;;;;;;;;1.14;98.30;94882.44;5011442;28;19957;-81
2021/12/04 05:18:52;;;;;;;;;;;;;;;1.17;97.80;94880.25;5025549;28;19958;-82
2021/12/04 05:21:19;;;;;;;;;;;;;;;1.21;97.38;94872.91;5019176;28;19976;-81
2021/12/04 05:23:49;;;;;;;;;;;;;;;1.22;97.48;94879.66;5030756;28;19954;-82
2021/12/04 05:26:17;;;;;;;;;;;;;;;1.23;96.66;94870.13;5029430;28;20320;-83
2021/12/04 05:28:43;;;;;;;;;;;;;;;1.26;96.66;94869.72;5020957;28;19971;-82
2021/12/04 05:31:09;;;;;;;;;;;;;;;1.28;97.40;94876.28;5025541;28;19950;-82
2021/12/04 05:33:36;;;;;;;;;;;;;;;1.29;97.32;94862.38;5017844;28;20481;-82
2021/12/04 05:36:02;;;;;;;;;;;;;;;1.31;96.63;94862.19;5006727;28;19952;-81
2021/12/04 05:38:28;;;;;;;;;;;;;;;1.31;97.59;94855.22;5024562;28;19956;-82
2021/12/04 05:40:55;;;;;;;;;;;;;;;1.35;97.80;94860.78;4994248;28;20374;-82
2021/12/04 05:43:22;;;;;;;;;;;;;;;1.34;97.45;94862.56;5022077;28;19952;-82
2021/12/04 05:45:56;;;;;;;;;;;;;;;1.37;98.33;94861.41;4993618;28;19973;-82
2021/12/04 05:48:30;;;;;;;;;;;;;;;1.37;97.61;94853.66;5005125;28;19965;-82
2021/12/04 05:51:19;;;;;;;;;;;;;;;1.37;98.02;94856.22;5010303;28;19964;-82
2021/12/04 05:56:18;;;;;;;;;;;;;;;1.39;97.97;94854.25;5016128;28;19957;-83
2021/12/04 05:58:44;;;;;;;;;;;;;;;1.42;98.76;94859.78;5007265;28;19977;-83
2021/12/04 06:01:11;;;;;;;;;;;;;;;1.45;99.69;94856.03;5012376;28;19958;-83
2021/12/04 06:03:37;;;;;;;;;;;;;;;1.46;98.63;94859.41;5007092;28;19971;-82
2021/12/04 06:06:03;;;;;;;;;;;;;;;1.47;99.67;94851.47;5001234;28;19993;-83
2021/12/04 06:08:30;;;;;;;;;;;;;;;1.48;99.19;94854.81;5007740;28;19990;-82
2021/12/04 06:10:56;;;;;;;;;;;;;;;1.49;98.70;94852.06;5025138;28;19973;-82
2021/12/04 06:13:22;;;;;;;;;;;;;;;1.52;100.00;94843.88;5027423;28;19964;-82
2021/12/04 06:15:49;;;;;;;;;;;;;;;1.53;100.00;94855.00;5012541;28;19959;-82
2021/12/04 06:18:16;;;;;;;;;;;;;;;1.54;100.00;94844.47;5007066;28;19959;-82
2021/12/04 06:23:27;;;;;;;;;;;;;;;1.62;100.00;94838.31;5005927;28;19973;-82
2021/12/04 06:25:53;;;;;;;;;;;;;;;1.64;100.00;94844.09;5007857;28;19958;-83
2021/12/04 06:28:19;;;;;;;;;;;;;;;1.68;99.90;94834.13;4994471;28;19982;-82
2021/12/04 06:30:45;;;;;;;;;;;;;;;1.71;99.19;94839.69;5015924;28;20435;-83
2021/12/04 06:33:12;;;;;;;;;;;;;;;1.75;99.07;94838.28;5008365;28;19949;-83
2021/12/04 06:35:42;;;;;;;;;;;;;;;1.75;99.95;94835.69;5026523;28;19971;-82
2021/12/04 06:38:09;;;;;;;;;;;;;;;1.79;99.33;94833.50;5021418;28;20323;-83
2021/12/04 06:40:36;;;;;;;;;;;;;;;1.81;99.73;94829.72;5021097;28;19961;-83
2021/12/04 06:43:03;;;;;;;;;;;;;;;1.85;100.00;94824.94;5034186;28;19954;-82
2021/12/04 06:45:30;;;;;;;;;;;;;;;1.87;100.00;94825.53;5010215;28;19963;-82
2021/12/04 06:47:59;;;;;;;;;;;;;;;1.89;100.00;94825.31;5004625;28;19958;-83
2021/12/04 06:50:37;;;;;;;;;;;;;;;1.91;100.00;94815.56;5024257;28;19986;-83
2021/12/04 06:55:43;;;;;;;;;;;;;;;1.98;100.00;94819.72;5008650;28;20421;-82
2021/12/04 06:58:08;;;;;;;;;;;;;;;2.03;100.00;94821.69;5026619;28;19953;-82
2021/12/04 07:00:35;;;;;;;;;;;;;;;2.05;100.00;94814.53;5026933;28;19995;-82
2021/12/04 07:03:00;;;;;;;;;;;;;;;2.07;100.00;94815.13;5023336;28;20273;-82
2021/12/04 07:05:29;;;;;;;;;;;;;;;2.09;100.00;94813.13;4991696;28;19961;-82
2021/12/04 07:07:55;;;;;;;;;;;;;;;2.11;100.00;94811.13;5033638;28;19982;-83
2021/12/04 07:10:24;;;;;;;;;;;;;;;2.14;100.00;94815.09;5000121;28;19978;-83
2021/12/04 07:12:50;;;;;;;;;;;;;;;2.17;100.00;94814.69;5027918;28;19951;-82
2021/12/04 07:15:16;;;;;;;;;;;;;;;2.21;100.00;94819.25;5028495;28;20427;-83
2021/12/04 07:17:42;;;;;;;;;;;;;;;2.22;100.00;94810.47;5004323;28;19983;-83
2021/12/04 07:20:09;;;;;;;;;;;;;;;2.22;100.00;94815.66;5023513;28;19951;-82
2021/12/04 07:22:35;;;;;;;;;;;;;;;2.24;100.00;94811.06;5023915;28;20411;-83
2021/12/04 07:25:01;;;;;;;;;;;;;;;2.26;100.00;94813.47;5021288;28;19964;-82
2021/12/04 07:27:30;;;;;;;;;;;;;;;2.27;100.00;94809.88;5023336;28;19961;-82
2021/12/04 07:29:56;;;;;;;;;;;;;;;2.28;100.00;94808.09;5032263;28;20327;-82
2021/12/04 07:32:25;;;;;;;;;;;;;;;2.29;100.00;94807.88;5020251;28;19964;-82
2021/12/04 07:34:51;;;;;;;;;;;;;;;2.31;100.00;94805.06;4989054;28;19967;-82
2021/12/04 07:37:20;;;;;;;;;;;;;;;2.33;100.00;94803.88;5022175;28;19972;-82
2021/12/04 07:39:46;;;;;;;;;;;;;;;2.38;100.00;94813.63;5028104;28;20464;-82
2021/12/04 07:42:12;;;;;;;;;;;;;;;2.41;100.00;94811.38;4999499;28;19955;-82
2021/12/04 07:44:37;;;;;;;;;;;;;;;2.44;100.00;94816.16;5006521;28;19963;-82
2021/12/04 07:47:03;;;;;;;;;;;;;;;2.46;100.00;94810.78;5006202;28;20006;-82
2021/12/04 07:49:29;;;;;;;;;;;;;;;2.50;100.00;94818.91;5019871;28;19979;-82
2021/12/04 07:51:55;;;;;;;;;;;;;;;2.52;100.00;94802.19;5022935;28;19981;-83
2021/12/04 07:54:24;;;;;;;;;;;;;;;2.55;100.00;94811.34;5007447;28;19954;-82
2021/12/04 07:56:50;;;;;;;;;;;;;;;2.59;100.00;94812.50;5006647;28;19956;-82
2021/12/04 07:59:16;;;;;;;;;;;;;;;2.61;100.00;94818.28;4986022;28;20473;-83
2021/12/04 08:01:42;;;;;;;;;;;;;;;2.64;100.00;94815.25;5001459;28;20317;-83
2021/12/04 08:04:08;;;;;;;;;;;;;;;2.67;100.00;94811.44;5013389;28;19963;-83
2021/12/04 08:06:35;;;;;;;;;;;;;;;2.70;100.00;94816.22;5019629;28;20456;-83
2021/12/04 08:09:04;;;;;;;;;;;;;;;2.71;100.00;94810.03;5009831;28;19971;-83
2021/12/04 08:11:31;;;;;;;;;;;;;;;2.75;100.00;94813.78;5024632;28;19961;-83
2021/12/04 08:13:56;;;;;;;;;;;;;;;2.75;100.00;94806.84;5027767;28;19958;-83
2021/12/04 08:16:25;;;;;;;;;;;;;;;2.78;100.00;94803.03;5008122;28;20422;-83
2021/12/04 08:18:52;;;;;;;;;;;;;;;2.80;100.00;94799.22;5023842;28;19971;-83
2021/12/04 08:21:19;;;;;;;;;;;;;;;2.82;100.00;94794.63;5009402;28;19952;-83
2021/12/04 08:23:45;;;;;;;;;;;;;;;2.84;100.00;94791.84;5008312;28;19960;-82
2021/12/04 08:26:11;;;;;;;;;;;;;;;2.88;100.00;94787.84;5016721;28;19960;-82
2021/12/04 08:28:37;;;;;;;;;;;;;;;2.88;100.00;94790.41;5009147;28;19959;-82
2021/12/04 08:31:03;;;;;;;;;;;;;;;2.91;100.00;94794.38;5004069;28;19951;-82
2021/12/04 08:33:29;;;;;;;;;;;;;;;2.94;100.00;94792.16;5024588;28;19976;-83
2021/12/04 08:35:55;;;;;;;;;;;;;;;2.97;100.00;94798.72;4987406;28;20006;-83
2021/12/04 08:38:21;;;;;;;;;;;;;;;2.98;100.00;94795.94;5006348;28;19955;-83
2021/12/04 08:40:48;;;;;;;;;;;;;;;3.00;100.00;94788.75;5026743;28;19966;-83
2021/12/04 08:43:14;;;;;;;;;;;;;;;3.00;100.00;94793.91;4991785;28;19951;-83
2021/12/04 08:45:43;;;;;;;;;;;;;;;3.01;100.00;94782.53;5005658;28;20431;-83
2021/12/04 08:48:09;;;;;;;;;;;;;;;3.05;100.00;94782.91;4986119;28;20433;-83
2021/12/04 08:50:35;;;;;;;;;;;;;;;3.07;100.00;94787.88;4991849;28;19976;-83
2021/12/04 08:53:02;;;;;;;;;;;;;;;3.09;100.00;94786.69;5027296;28;19952;-83
2021/12/04 08:55:28;;;;;;;;;;;;;;;3.13;100.00;94785.25;5012804;28;19964;-83
2021/12/04 08:57:55;;;;;;;;;;;;;;;3.17;100.00;94790.78;5002721;28;19964;-83
2021/12/04 09:00:23;;;;;;;;;;;;;;;3.19;100.00;94791.34;4990974;28;19957;-84
2021/12/04 09:02:50;;;;;;;;;;;;;;;3.23;100.00;94787.34;5014130;28;19944;-84
2021/12/04 09:05:17;;;;;;;;;;;;;;;3.25;100.00;94786.16;5013543;28;19950;-83
2021/12/04 09:07:44;;;;;;;;;;;;;;;3.28;100.00;94773.78;5006968;28;19985;-84
2021/12/04 09:10:10;;;;;;;;;;;;;;;3.33;100.00;94779.09;5022821;28;19964;-83
2021/12/04 09:12:38;;;;;;;;;;;;;;;3.37;100.00;94790.63;5032581;28;19963;-83
2021/12/04 09:15:08;;;;;;;;;;;;;;;3.41;100.00;94779.59;5006796;28;19959;-83
2021/12/04 09:17:34;;;;;;;;;;;;;;;3.46;100.00;94778.97;5003665;28;19970;-83
2021/12/04 09:20:04;;;;;;;;;;;;;;;3.53;100.00;94782.28;5007487;28;20327;-83
2021/12/04 09:22:33;;;;;;;;;;;;;;;3.59;100.00;94778.03;5026477;28;19960;-83
2021/12/04 09:25:01;;;;;;;;;;;;;;;3.65;100.00;94782.38;5029699;28;19950;-83
2021/12/04 09:30:10;;;;;;;;;;;;;;;3.77;100.00;94774.69;5009336;28;19982;-81
2021/12/04 09:35:25;;;;;;;;;;;;;;;3.86;100.00;94781.16;5028889;28;19969;-81
2021/12/04 10:02:34;;;;;;;;;;;;;;;4.50;100.00;94760.03;5008041;28;19985;-81
2021/12/04 10:05:17;;;;;;;;;;;;;;;4.58;100.00;94747.50;5026264;28;19961;-81
2021/12/04 10:35:05;;;;;;;;;;;;;;;5.36;100.00;94704.09;5025631;28;19959;-81
2021/12/04 10:37:32;;;;;;;;;;;;;;;5.42;100.00;94705.00;5006225;28;19984;-81
2021/12/04 10:40:08;;;;;;;;;;;;;;;5.46;100.00;94690.53;5020273;28;19965;-80
2021/12/04 10:43:12;;;;;;;;;;;;;;;5.52;100.00;94681.78;5006567;28;20417;-80
2021/12/04 10:45:40;;;;;;;;;;;;;;;5.59;100.00;94685.06;4946547;29;20135;-80
2021/12/04 10:48:13;;;;;;;;;;;;;;;5.64;100.00;94686.97;5011516;28;19960;-80
2021/12/04 10:53:37;;;;;;;;;;;;;;;5.69;100.00;94674.06;5025548;28;19957;-80
2021/12/04 11:04:24;;;;;;;;;;;;;;;5.79;100.00;94645.66;5006910;28;20407;-80
2021/12/04 11:36:41;;;;;;;;;;;;;;;6.16;100.00;94621.88;5002196;28;19958;-79
2021/12/04 11:39:26;;;;;;;;;;;;;;;6.20;100.00;94611.81;5030279;28;20320;-80
2021/12/04 11:42:02;;;;;;;;;;;;;;;6.25;100.00;94604.84;5022908;28;19960;-80
2021/12/04 11:44:44;;;;;;;;;;;;;;;6.32;100.00;94599.50;5027096;28;19955;-80
2021/12/04 11:47:10;;;;;;;;;;;;;;;6.37;100.00;94606.59;5021055;28;19954;-79
2021/12/04 11:49:36;;;;;;;;;;;;;;;6.41;100.00;94607.72;5010077;28;19970;-79
2021/12/04 11:52:07;;;;;;;;;;;;;;;6.43;100.00;94597.84;5020972;28;19958;-79
2021/12/04 11:54:42;;;;;;;;;;;;;;;6.42;100.00;94594.44;5027113;28;19954;-80
2021/12/04 11:57:09;;;;;;;;;;;;;;;6.44;100.00;94592.38;5026906;28;19950;-80
2021/12/04 11:59:36;;;;;;;;;;;;;;;6.46;100.00;94589.56;5026128;28;20396;-79
2021/12/04 12:02:03;;;;;;;;;;;;;;;6.45;100.00;94585.38;5012933;28;19966;-80
2021/12/04 12:04:34;;;;;;;;;;;;;;;6.45;100.00;94580.97;5023811;28;19958;-80
2021/12/04 12:07:09;;;;;;;;;;;;;;;6.48;100.00;94577.09;5026221;28;19979;-80
2021/12/04 12:09:36;;;;;;;;;;;;;;;6.50;100.00;94575.03;5024535;28;19980;-80
2021/12/04 12:12:03;;;;;;;;;;;;;;;6.52;100.00;94572.22;5019560;28;19964;-80
2021/12/04 12:14:37;;;;;;;;;;;;;;;6.52;100.00;94565.19;5011248;28;19963;-80
2021/12/04 12:17:03;;;;;;;;;;;;;;;6.55;100.00;94563.91;5021687;28;19959;-80
2021/12/04 12:19:40;;;;;;;;;;;;;;;6.55;100.00;94563.91;5001315;28;19954;-80
2021/12/04 12:27:18;;;;;;;;;;;;;;;6.57;100.00;94554.03;5026238;28;19955;-80
2021/12/04 12:38:09;;;;;;;;;;;;;;;6.57;100.00;94546.22;5027740;28;19950;-80
2021/12/04 12:40:35;;;;;;;;;;;;;;;6.56;100.00;94548.06;4995094;28;19965;-80
2021/12/04 12:43:16;;;;;;;;;;;;;;;6.55;100.00;94549.09;5029855;28;19957;-80
2021/12/04 12:45:53;;;;;;;;;;;;;;;6.55;100.00;94543.06;5026811;28;20442;-80
2021/12/04 12:48:21;;;;;;;;;;;;;;;6.56;100.00;94545.44;5009410;28;19959;-80
2021/12/04 12:50:48;;;;;;;;;;;;;;;6.57;100.00;94541.03;5025812;28;19969;-80
2021/12/04 12:53:19;;;;;;;;;;;;;;;6.56;100.00;94537.63;5025373;28;19969;-80
2021/12/04 12:55:47;;;;;;;;;;;;;;;6.56;100.00;94536.84;5007455;28;19955;-80
2021/12/04 12:58:24;;;;;;;;;;;;;;;6.57;100.00;94541.03;5010483;28;19956;-80
2021/12/04 13:11:54;;;;;;;;;;;;;;;6.55;100.00;94536.06;5006898;28;19954;-80
2021/12/04 13:14:22;;;;;;;;;;;;;;;6.56;100.00;94534.25;5015794;28;19949;-80
2021/12/04 13:16:50;;;;;;;;;;;;;;;6.57;100.00;94530.59;5036014;28;20336;-80
2021/12/04 13:19:18;;;;;;;;;;;;;;;6.55;100.00;94523.06;5023170;28;19958;-80
2021/12/04 13:21:47;;;;;;;;;;;;;;;6.57;100.00;94530.59;5026277;28;19960;-81
2021/12/04 13:24:13;;;;;;;;;;;;;;;6.56;100.00;94529.03;5010102;28;19964;-81
2021/12/04 13:26:41;;;;;;;;;;;;;;;6.55;100.00;94525.66;5025882;28;20420;-81
2021/12/04 13:29:08;;;;;;;;;;;;;;;6.55;100.00;94540.47;5024426;28;19960;-80
2021/12/04 13:31:37;;;;;;;;;;;;;;;6.56;100.00;94534.25;5020841;28;19967;-80
2021/12/04 13:34:07;;;;;;;;;;;;;;;6.54;100.00;94533.69;5021261;28;19953;-81
2021/12/04 13:36:33;;;;;;;;;;;;;;;6.54;100.00;94529.28;5011383;28;19978;-81
2021/12/04 13:39:10;;;;;;;;;;;;;;;6.55;100.00;94535.25;4992843;28;19995;-81
2021/12/04 13:41:37;;;;;;;;;;;;;;;6.54;100.00;94536.31;5024629;28;19959;-81
2021/12/04 13:44:05;;;;;;;;;;;;;;;6.54;100.00;94537.09;5006483;28;20322;-81
2021/12/04 13:46:45;;;;;;;;;;;;;;;6.54;100.00;94531.88;5010257;28;19962;-81
2021/12/04 13:49:13;;;;;;;;;;;;;;;6.53;100.00;94524.28;5022139;28;19961;-81
2021/12/04 13:51:40;;;;;;;;;;;;;;;6.55;100.00;94522.25;5025048;28;19977;-81
2021/12/04 13:54:07;;;;;;;;;;;;;;;6.55;100.00;94528.25;5024610;28;19951;-81
2021/12/04 13:56:33;;;;;;;;;;;;;;;6.58;100.00;94540.78;5027401;28;19959;-81
2021/12/04 13:59:01;;;;;;;;;;;;;;;6.58;100.00;94534.81;5030794;28;19949;-81
2021/12/04 14:01:29;;;;;;;;;;;;;;;6.56;100.00;94532.44;5006227;28;19962;-80
2021/12/04 14:03:59;;;;;;;;;;;;;;;6.56;100.00;94524.63;5021455;28;19966;-81
2021/12/04 14:06:25;;;;;;;;;;;;;;;6.55;100.00;94530.06;5020426;28;19988;-80
2021/12/04 14:09:09;;;;;;;;;;;;;;;6.54;100.00;94537.09;5023871;28;20334;-80
2021/12/04 14:11:41;;;;;;;;;;;;;;;6.53;100.00;94534.72;5025769;28;19969;-80
2021/12/04 14:14:10;;;;;;;;;;;;;;;6.52;100.00;94531.31;4993178;28;19961;-81
2021/12/04 14:16:36;;;;;;;;;;;;;;;6.55;100.00;94540.47;5018337;28;19964;-80
2021/12/04 14:19:15;;;;;;;;;;;;;;;6.54;100.00;94525.88;5026189;28;20305;-80
2021/12/04 14:21:41;;;;;;;;;;;;;;;6.53;100.00;94537.31;5029256;28;19958;-81
2021/12/04 14:24:07;;;;;;;;;;;;;;;6.50;100.00;94538.59;5018882;28;19943;-81
2021/12/04 14:26:33;;;;;;;;;;;;;;;6.50;100.00;94538.59;5024661;28;20001;-81
2021/12/04 14:28:59;;;;;;;;;;;;;;;6.53;100.00;94538.13;5010544;28;19948;-80
2021/12/04 14:31:25;;;;;;;;;;;;;;;6.56;100.00;94535.03;5028067;28;19988;-81
2021/12/04 14:33:51;;;;;;;;;;;;;;;6.60;100.00;94535.34;5025240;28;19953;-80
2021/12/04 14:36:20;;;;;;;;;;;;;;;6.58;100.00;94538.19;5020923;28;19967;-81
2021/12/04 14:38:47;;;;;;;;;;;;;;;6.56;100.00;94542.84;5005688;28;20286;-81
2021/12/04 14:41:14;;;;;;;;;;;;;;;6.53;100.00;94538.13;5029703;28;19961;-80
2021/12/04 14:43:41;;;;;;;;;;;;;;;6.56;100.00;94542.06;5027011;28;19959;-80
2021/12/04 14:46:09;;;;;;;;;;;;;;;6.56;100.00;94539.47;5018739;28;19949;-80
2021/12/04 14:48:38;;;;;;;;;;;;;;;6.54;100.00;94538.91;5020913;28;19955;-80
2021/12/04 14:51:09;;;;;;;;;;;;;;;6.55;100.00;94543.06;5029562;28;19959;-80
2021/12/04 14:53:39;;;;;;;;;;;;;;;6.57;100.00;94554.81;5024733;28;19968;-81
2021/12/04 14:56:06;;;;;;;;;;;;;;;6.55;100.00;94551.69;5028270;28;19954;-80
2021/12/04 14:58:32;;;;;;;;;;;;;;;6.55;100.00;94567.31;5004593;28;19948;-80
2021/12/04 15:01:00;;;;;;;;;;;;;;;6.54;100.00;94555.31;5020753;28;19954;-81
2021/12/04 15:03:37;;;;;;;;;;;;;;;6.53;100.00;94545.94;5026386;28;19953;-81
2021/12/04 15:06:06;;;;;;;;;;;;;;;6.51;100.00;94561.00;5026521;28;19959;-81
2021/12/04 15:08:37;;;;;;;;;;;;;;;6.53;100.00;94569.38;5021370;28;20309;-81
2021/12/04 15:11:06;;;;;;;;;;;;;;;6.53;100.00;94558.16;5001979;28;19975;-81
2021/12/04 15:13:36;;;;;;;;;;;;;;;6.53;100.00;94560.75;5028632;28;19946;-80
2021/12/04 15:16:05;;;;;;;;;;;;;;;6.51;100.00;94563.63;5010813;28;19958;-81
2021/12/04 15:18:36;;;;;;;;;;;;;;;6.50;100.00;94562.81;5005399;28;19962;-81
2021/12/04 15:21:05;;;;;;;;;;;;;;;6.50;100.00;94578.44;5020246;28;19957;-81
2021/12/04 15:23:32;;;;;;;;;;;;;;;6.49;100.00;94582.06;4991044;28;19961;-81
2021/12/04 15:26:07;;;;;;;;;;;;;;;6.47;100.00;94578.91;5006046;28;19951;-81
2021/12/04 15:28:33;;;;;;;;;;;;;;;6.47;100.00;94578.13;5025343;28;19957;-81
2021/12/04 15:31:00;;;;;;;;;;;;;;;6.45;100.00;94573.16;5018679;28;19968;-81
2021/12/04 15:33:34;;;;;;;;;;;;;;;6.45;100.00;94577.59;5005622;28;19964;-81
2021/12/04 15:36:00;;;;;;;;;;;;;;;6.44;100.00;94581.97;5021761;28;19957;-81
2021/12/04 15:38:39;;;;;;;;;;;;;;;6.43;100.00;94575.22;5026098;28;19957;-81
2021/12/04 15:54:45;;;;;;;;;;;;;;;6.40;100.00;94613.94;5023128;28;19962;-80
2021/12/04 15:57:14;;;;;;;;;;;;;;;6.42;100.00;94611.88;5027932;28;19982;-80
2021/12/04 15:59:44;;;;;;;;;;;;;;;6.45;100.00;94614.81;5028113;28;19958;-80
2021/12/04 16:02:12;;;;;;;;;;;;;;;6.46;100.00;94616.38;5027516;28;19959;-80
2021/12/04 16:04:39;;;;;;;;;;;;;;;6.49;100.00;94609.94;5025601;28;20414;-81
2021/12/04 16:07:05;;;;;;;;;;;;;;;6.50;100.00;94611.50;5027247;28;19995;-81
2021/12/04 16:09:33;;;;;;;;;;;;;;;6.50;100.00;94609.66;5032319;28;20333;-80
2021/12/04 16:12:04;;;;;;;;;;;;;;;6.48;100.00;94608.34;5022346;28;19965;-80